Time;durP1;ratioP1;P1;durP2;ratioP2;P2;SDS_P1;SDS_P2;PMS_P1;PMS_P2;Temp;Humidity;BMP_temperature;BMP_pressure;BME280_temperature;BME280_humidity;BME280_pressure;Samples;Min_cycle;Max_cycle;Signal;HPM_P1;HPM_P2
2023/11/17 11:31:52;;;;;;;12.00;10.60;;;21.80;67.50;;;;;;5134054;27;20524;-67
2023/11/17 11:34:21;;;;;;;11.77;10.57;;;21.80;67.70;;;;;;5137254;27;20460;-65
2023/11/17 11:36:54;;;;;;;12.90;11.30;;;21.90;67.40;;;;;;5129959;27;20453;-66
2023/11/17 11:39:22;;;;;;;14.80;13.10;;;22.00;66.90;;;;;;5116552;28;20477;-65
2023/11/17 11:41:50;;;;;;;13.83;11.30;;;22.00;66.50;;;;;;5110446;28;20501;-63
2023/11/17 11:44:17;;;;;;;12.07;10.80;;;22.10;66.20;;;;;;5118449;28;20471;-63
2023/11/17 11:46:44;;;;;;;11.83;10.57;;;22.10;65.80;;;;;;5110040;28;20496;-63
2023/11/17 11:49:16;;;;;;;12.00;10.83;;;22.10;65.90;;;;;;5122182;28;20489;-63
2023/11/17 11:51:48;;;;;;;15.43;12.00;;;22.10;65.60;;;;;;5121875;27;20500;-66
2023/11/17 11:54:16;;;;;;;11.73;10.53;;;22.20;66.20;;;;;;5110107;28;20442;-66
2023/11/17 11:56:44;;;;;;;13.90;10.80;;;22.30;65.30;;;;;;5109653;28;20546;-61
2023/11/17 11:59:12;;;;;;;15.83;11.77;;;22.30;65.20;;;;;;5109308;28;20528;-60
2023/11/17 12:01:42;;;;;;;14.43;12.13;;;22.20;65.30;;;;;;5108904;28;20445;-60
2023/11/17 12:04:10;;;;;;;12.50;10.77;;;22.30;65.80;;;;;;5115382;27;20440;-60
2023/11/17 12:06:41;;;;;;;11.77;10.57;;;22.40;65.90;;;;;;5117602;27;20539;-59
2023/11/17 12:09:16;;;;;;;13.90;11.07;;;22.50;65.80;;;;;;5100511;28;20442;-58
2023/11/17 12:11:46;;;;;;;11.53;10.43;;;22.50;65.70;;;;;;5108629;28;20475;-58
2023/11/17 12:14:15;;;;;;;11.73;10.47;;;22.50;65.70;;;;;;5110442;28;20872;-60
2023/11/17 12:16:43;;;;;;;11.50;10.33;;;22.60;65.70;;;;;;5108254;28;20512;-59
2023/11/17 12:19:10;;;;;;;10.83;9.93;;;22.60;65.70;;;;;;5108921;28;20494;-59
2023/11/17 12:21:42;;;;;;;11.30;10.20;;;22.60;65.70;;;;;;5108921;28;20450;-61
2023/11/17 12:24:12;;;;;;;10.40;9.47;;;22.60;65.70;;;;;;5100646;28;20480;-58
2023/11/17 12:26:41;;;;;;;9.43;8.60;;;22.60;65.90;;;;;;5108624;28;20476;-60
2023/11/17 12:29:11;;;;;;;12.97;11.87;;;22.70;66.00;;;;;;5100668;28;20473;-60
2023/11/17 12:31:39;;;;;;;12.37;10.23;;;22.70;66.00;;;;;;5108651;28;20911;-59
2023/11/17 12:34:06;;;;;;;10.10;9.03;;;22.70;66.00;;;;;;5108168;28;20476;-59
2023/11/17 12:36:35;;;;;;;11.57;10.40;;;22.70;66.00;;;;;;5108724;28;20904;-59
2023/11/17 12:39:06;;;;;;;10.80;9.80;;;22.70;66.00;;;;;;5116945;28;20446;-60
2023/11/17 12:41:34;;;;;;;11.70;10.50;;;22.70;66.00;;;;;;5103875;28;20825;-60
2023/11/17 12:44:01;;;;;;;9.93;8.97;;;22.70;66.00;;;;;;5094448;28;20485;-60
2023/11/17 12:46:31;;;;;;;13.07;8.73;;;22.70;65.90;;;;;;5094745;28;20499;-61
2023/11/17 12:48:59;;;;;;;9.90;9.10;;;22.70;65.90;;;;;;5093738;28;20470;-59
2023/11/17 12:51:27;;;;;;;9.63;8.63;;;22.70;66.00;;;;;;5094417;28;20545;-59
2023/11/17 12:53:56;;;;;;;10.67;9.60;;;22.80;66.10;;;;;;5102909;28;20469;-60
2023/11/17 12:56:25;;;;;;;10.00;9.10;;;22.80;66.20;;;;;;5094213;28;20493;-58
2023/11/17 12:58:53;;;;;;;12.50;10.67;;;22.80;66.20;;;;;;5094628;28;20482;-64
2023/11/17 13:01:21;;;;;;;13.07;11.87;;;22.70;65.40;;;;;;5095209;28;20446;-64
2023/11/17 13:03:49;;;;;;;13.73;12.43;;;22.60;66.00;;;;;;5103647;28;20563;-63
2023/11/17 13:06:18;;;;;;;11.90;10.90;;;22.50;65.10;;;;;;5099614;28;20493;-64
2023/11/17 13:08:45;;;;;;;12.03;10.83;;;22.50;65.00;;;;;;5095096;28;20974;-66
2023/11/17 13:11:12;;;;;;;13.20;12.03;;;22.40;64.70;;;;;;5094702;28;20514;-67
2023/11/17 13:13:42;;;;;;;11.30;10.03;;;22.40;64.70;;;;;;5093850;28;20443;-65
2023/11/17 13:16:10;;;;;;;11.00;10.30;;;22.40;64.50;;;;;;5085496;28;20494;-64
2023/11/17 13:18:39;;;;;;;11.03;10.23;;;22.40;64.60;;;;;;5106701;28;20786;-63
2023/11/17 13:21:07;;;;;;;11.53;10.53;;;22.40;64.50;;;;;;5106260;28;20873;-63
2023/11/17 13:23:34;;;;;;;11.70;10.70;;;22.40;64.50;;;;;;5104449;28;20461;-63
2023/11/17 13:26:06;;;;;;;12.30;11.00;;;22.40;64.30;;;;;;5105133;28;20870;-62
2023/11/17 13:28:41;;;;;;;11.57;10.57;;;22.40;64.50;;;;;;5106313;28;20477;-64
2023/11/17 13:31:19;;;;;;;15.77;14.60;;;22.30;64.20;;;;;;5102681;28;20505;-68
2023/11/17 13:33:47;;;;;;;15.87;14.67;;;22.30;64.50;;;;;;5102405;28;20446;-65
2023/11/17 13:36:15;;;;;;;13.00;12.17;;;22.30;64.30;;;;;;5098599;28;20461;-65
2023/11/17 13:39:11;;;;;;;13.70;12.47;;;22.30;64.30;;;;;;5105774;28;20463;-67
2023/11/17 13:41:38;;;;;;;14.03;12.93;;;22.30;64.30;;;;;;5089608;28;20946;-66
2023/11/17 13:44:07;;;;;;;15.03;13.83;;;22.30;64.00;;;;;;5110628;28;20466;-67
2023/11/17 13:46:36;;;;;;;16.20;15.00;;;22.30;64.20;;;;;;5101748;28;20499;-67
2023/11/17 13:49:09;;;;;;;15.40;14.10;;;22.30;62.30;;;;;;5104422;28;20442;-67
2023/11/17 13:51:38;;;;;;;12.97;11.77;;;22.20;59.40;;;;;;5105189;28;20481;-64
2023/11/17 13:54:07;;;;;;;14.17;12.83;;;22.10;59.90;;;;;;5101449;28;20497;-62
2023/11/17 13:56:38;;;;;;;12.03;11.00;;;22.10;62.30;;;;;;5101729;28;20497;-63
2023/11/17 13:59:10;;;;;;;11.87;10.90;;;22.10;63.20;;;;;;5104503;28;21045;-62
2023/11/17 14:01:38;;;;;;;12.43;11.47;;;22.10;63.50;;;;;;5105106;28;20465;-63
2023/11/17 14:04:06;;;;;;;12.00;11.00;;;22.10;63.50;;;;;;5102436;28;20480;-61
2023/11/17 14:06:33;;;;;;;12.23;10.93;;;22.20;63.80;;;;;;5099926;28;20492;-64
2023/11/17 14:09:01;;;;;;;11.40;10.40;;;22.20;64.90;;;;;;5095295;28;20491;-67
2023/11/17 14:11:29;;;;;;;12.57;11.67;;;22.20;64.20;;;;;;5110912;28;20471;-64
2023/11/17 14:13:56;;;;;;;12.60;11.60;;;22.20;64.20;;;;;;5096110;28;20871;-64
2023/11/17 14:16:24;;;;;;;12.07;11.07;;;22.10;64.00;;;;;;5095672;28;20486;-67
2023/11/17 14:18:53;;;;;;;13.00;11.90;;;22.10;64.10;;;;;;5097431;28;20474;-65
2023/11/17 14:21:20;;;;;;;11.97;10.77;;;22.10;64.30;;;;;;5102284;28;20461;-65
2023/11/17 14:23:49;;;;;;;12.20;11.20;;;22.10;64.80;;;;;;5102264;28;20499;-65
2023/11/17 14:26:21;;;;;;;13.70;12.40;;;22.10;64.40;;;;;;5095563;28;20535;-66
2023/11/17 14:28:49;;;;;;;13.07;11.97;;;22.10;64.30;;;;;;5095486;28;20454;-67
2023/11/17 14:31:19;;;;;;;13.03;11.93;;;22.10;64.40;;;;;;5094854;28;20497;-66
2023/11/17 14:33:48;;;;;;;14.80;13.60;;;22.10;64.30;;;;;;5093899;28;20451;-68
2023/11/17 14:36:16;;;;;;;12.60;11.80;;;22.10;64.50;;;;;;5092352;28;20823;-66
2023/11/17 14:38:44;;;;;;;12.30;11.40;;;22.10;64.40;;;;;;5092428;28;20473;-67
2023/11/17 14:41:13;;;;;;;11.50;10.70;;;22.10;64.40;;;;;;5093579;28;20442;-68
2023/11/17 14:43:41;;;;;;;13.13;11.93;;;22.10;64.50;;;;;;5093114;28;20469;-67
2023/11/17 14:46:11;;;;;;;12.33;11.20;;;22.10;64.50;;;;;;5094077;28;20485;-69
2023/11/17 14:48:38;;;;;;;13.53;12.50;;;22.10;65.10;;;;;;5093071;28;20457;-68
2023/11/17 14:51:09;;;;;;;11.90;10.73;;;22.10;64.50;;;;;;5093788;28;20477;-68
2023/11/17 14:53:36;;;;;;;12.43;11.33;;;22.10;64.70;;;;;;5094854;28;20457;-68
2023/11/17 14:56:05;;;;;;;13.53;12.53;;;22.10;64.60;;;;;;5095613;28;21017;-68
2023/11/17 14:58:33;;;;;;;13.70;12.63;;;22.10;64.60;;;;;;5094533;28;20844;-67
2023/11/17 15:01:03;;;;;;;13.87;12.77;;;22.10;64.70;;;;;;5094753;28;20434;-69
2023/11/17 15:03:33;;;;;;;12.70;11.73;;;22.10;64.80;;;;;;5094122;28;20447;-66
2023/11/17 15:06:04;;;;;;;12.80;11.73;;;22.10;64.70;;;;;;5094433;28;20446;-66
2023/11/17 15:08:33;;;;;;;12.20;11.30;;;22.10;64.50;;;;;;5093954;28;20454;-66
2023/11/17 15:11:01;;;;;;;13.17;11.97;;;22.10;64.90;;;;;;5093439;28;20484;-68
2023/11/17 15:13:29;;;;;;;12.40;11.47;;;22.10;64.50;;;;;;5094727;28;20537;-67
2023/11/17 15:15:57;;;;;;;12.83;12.03;;;22.10;64.40;;;;;;5095728;28;20443;-70
2023/11/17 15:18:23;;;;;;;11.83;10.93;;;22.10;64.30;;;;;;5093109;28;20853;-68
2023/11/17 15:20:53;;;;;;;13.57;12.40;;;22.10;63.90;;;;;;5092939;28;20484;-68
2023/11/17 15:23:20;;;;;;;12.10;11.00;;;22.10;63.70;;;;;;5092849;28;20447;-66
2023/11/17 15:25:48;;;;;;;12.17;11.30;;;22.10;63.70;;;;;;5093006;28;20473;-68
2023/11/17 15:28:19;;;;;;;12.57;11.70;;;22.10;63.50;;;;;;5092780;28;20446;-67
2023/11/17 15:30:53;;;;;;;12.53;11.53;;;22.20;63.50;;;;;;5092515;28;20923;-67
2023/11/17 15:33:20;;;;;;;12.33;11.53;;;22.10;63.20;;;;;;5093123;28;20442;-66
2023/11/17 15:35:48;;;;;;;12.87;12.00;;;22.20;63.20;;;;;;5092800;28;20473;-72
2023/11/17 15:38:16;;;;;;;12.20;11.30;;;22.10;63.10;;;;;;5092490;28;20783;-67
2023/11/17 15:40:43;;;;;;;11.13;10.23;;;22.10;63.50;;;;;;5092060;28;20533;-71
2023/11/17 15:43:12;;;;;;;11.53;10.63;;;22.10;63.80;;;;;;5092138;28;20443;-71
2023/11/17 15:45:41;;;;;;;12.50;11.40;;;22.10;64.30;;;;;;5093644;28;20449;-69
2023/11/17 15:48:08;;;;;;;11.50;10.37;;;22.00;64.40;;;;;;5094526;28;20472;-69
2023/11/17 15:50:37;;;;;;;11.70;10.50;;;22.00;64.50;;;;;;5107796;22;20949;-67
2023/11/17 15:53:04;;;;;;;12.00;11.17;;;22.00;64.70;;;;;;5071565;28;21016;-67
2023/11/17 15:55:31;;;;;;;12.33;11.53;;;22.00;64.60;;;;;;5071473;28;20448;-69
2023/11/17 15:57:59;;;;;;;12.03;10.83;;;22.00;64.60;;;;;;5069758;28;20522;-67
2023/11/17 16:00:30;;;;;;;10.73;9.80;;;22.00;65.30;;;;;;5071355;28;20491;-67
2023/11/17 16:02:57;;;;;;;12.20;11.30;;;22.10;65.40;;;;;;5071677;28;20984;-70
2023/11/17 16:05:24;;;;;;;11.30;10.50;;;22.00;64.40;;;;;;5071717;28;20962;-69
2023/11/17 16:07:53;;;;;;;11.27;10.40;;;22.00;64.30;;;;;;5071448;28;20474;-71
2023/11/17 16:10:22;;;;;;;11.83;10.83;;;22.00;64.30;;;;;;5071133;28;20534;-68
2023/11/17 16:12:50;;;;;;;11.10;10.30;;;22.00;64.30;;;;;;5071643;28;20474;-72
2023/11/17 16:15:19;;;;;;;11.80;10.93;;;22.00;64.40;;;;;;5064773;28;20448;-72
2023/11/17 16:17:48;;;;;;;11.43;10.73;;;22.00;64.40;;;;;;5073851;28;20443;-71
2023/11/17 16:20:17;;;;;;;13.20;12.27;;;22.00;64.80;;;;;;5075131;28;21081;-69
2023/11/17 16:22:46;;;;;;;12.83;11.83;;;22.00;66.70;;;;;;5075514;28;20447;-70
2023/11/17 16:25:14;;;;;;;15.07;14.10;;;22.00;65.10;;;;;;5075143;28;20431;-67
2023/11/17 16:27:41;;;;;;;12.37;11.37;;;22.00;64.90;;;;;;5075283;28;20454;-66
2023/11/17 16:30:13;;;;;;;12.03;11.03;;;22.00;64.00;;;;;;5074724;28;20520;-67
2023/11/17 16:32:41;;;;;;;12.57;11.77;;;22.00;65.40;;;;;;5075074;28;20562;-68
2023/11/17 16:35:13;;;;;;;12.17;11.37;;;21.90;65.40;;;;;;5075475;28;20436;-67
2023/11/17 16:37:46;;;;;;;12.03;11.23;;;21.90;65.10;;;;;;5075469;28;20505;-67
2023/11/17 16:40:15;;;;;;;12.00;11.10;;;21.90;65.00;;;;;;5074775;28;20467;-68
2023/11/17 16:42:42;;;;;;;13.03;12.10;;;21.90;65.00;;;;;;5075489;28;20427;-68
2023/11/17 16:45:09;;;;;;;12.80;11.70;;;21.80;65.20;;;;;;5075998;28;20817;-68
2023/11/17 16:47:36;;;;;;;11.93;11.00;;;21.80;65.00;;;;;;5075659;28;20477;-68
2023/11/17 16:50:06;;;;;;;10.90;10.17;;;21.80;64.90;;;;;;5074293;28;20502;-70
2023/11/17 16:52:37;;;;;;;10.77;9.97;;;21.80;65.00;;;;;;5075366;28;20499;-70
2023/11/17 16:55:04;;;;;;;10.80;10.13;;;21.90;64.10;;;;;;5075542;28;20443;-70
2023/11/17 16:57:32;;;;;;;11.20;10.50;;;21.90;63.60;;;;;;5075230;28;20859;-68
2023/11/17 16:59:59;;;;;;;12.10;11.00;;;21.90;65.60;;;;;;5074111;28;20471;-72
2023/11/17 17:02:29;;;;;;;11.03;10.17;;;22.00;67.60;;;;;;5075453;28;20431;-75
2023/11/17 17:04:57;;;;;;;11.10;9.50;;;22.10;66.30;;;;;;5075058;28;20451;-72
2023/11/17 17:07:24;;;;;;;9.90;9.30;;;22.10;66.00;;;;;;5074753;28;20540;-67
2023/11/17 17:09:54;;;;;;;10.20;9.40;;;22.20;65.20;;;;;;5074298;28;20513;-64
2023/11/17 17:12:21;;;;;;;10.87;10.00;;;22.30;64.90;;;;;;5074366;28;20479;-67
2023/11/17 17:14:48;;;;;;;10.90;10.10;;;22.30;64.60;;;;;;5074079;28;20476;-69
2023/11/17 17:17:16;;;;;;;13.63;10.00;;;22.40;64.40;;;;;;5075850;28;20447;-70
2023/11/17 17:19:43;;;;;;;9.97;9.37;;;22.50;64.40;;;;;;5074583;28;20823;-71
2023/11/17 17:22:10;;;;;;;9.83;9.07;;;22.50;64.00;;;;;;5074127;28;20557;-68
2023/11/17 17:24:38;;;;;;;10.97;10.07;;;22.60;63.90;;;;;;5074644;28;20447;-71
2023/11/17 17:27:08;;;;;;;9.80;9.10;;;22.60;64.30;;;;;;5074137;28;20486;-76
2023/11/17 17:29:35;;;;;;;10.70;9.52;;;22.60;64.00;;;;;;5073190;28;20982;-71
2023/11/17 17:32:03;;;;;;;10.27;8.27;;;22.60;63.90;;;;;;5073794;28;20263;-71
2023/11/17 17:34:30;;;;;;;7.87;7.20;;;22.70;64.00;;;;;;5073768;28;20439;-71
2023/11/17 17:36:57;;;;;;;10.30;8.47;;;22.70;63.20;;;;;;5074133;28;20742;-72
2023/11/17 17:39:25;;;;;;;9.17;8.27;;;22.70;62.90;;;;;;5073479;28;20470;-72
2023/11/17 17:41:52;;;;;;;8.50;7.67;;;22.80;62.80;;;;;;5073554;28;20477;-72
2023/11/17 17:44:20;;;;;;;7.80;7.20;;;22.80;62.70;;;;;;5073690;28;20451;-70
2023/11/17 17:46:47;;;;;;;7.87;7.27;;;22.80;63.70;;;;;;5073414;28;20573;-70
2023/11/17 17:49:16;;;;;;;7.10;6.60;;;22.90;63.00;;;;;;5072483;28;20437;-74
2023/11/17 17:51:43;;;;;;;8.50;7.77;;;22.90;62.80;;;;;;5073106;28;20232;-71
2023/11/17 17:54:11;;;;;;;9.30;8.47;;;22.90;61.80;;;;;;5073179;28;20501;-70
2023/11/17 17:56:39;;;;;;;8.63;7.72;;;22.80;61.60;;;;;;5072345;28;20489;-72
2023/11/17 17:59:06;;;;;;;11.10;10.00;;;22.80;61.30;;;;;;5073301;28;20204;-72
2023/11/17 18:01:34;;;;;;;11.10;9.40;;;22.80;61.40;;;;;;5073380;28;20490;-70
2023/11/17 18:04:02;;;;;;;13.13;10.37;;;22.80;61.30;;;;;;5072632;28;20479;-70
2023/11/17 18:06:29;;;;;;;8.73;7.93;;;22.70;61.20;;;;;;5073686;28;20501;-69
2023/11/17 18:08:56;;;;;;;9.50;8.60;;;22.70;61.80;;;;;;5072749;28;20470;-75
2023/11/17 18:11:25;;;;;;;11.73;9.43;;;22.70;61.30;;;;;;5072739;28;20271;-69
2023/11/17 18:13:53;;;;;;;11.03;8.47;;;22.70;61.40;;;;;;5072764;28;20943;-75
2023/11/17 18:16:21;;;;;;;9.40;8.50;;;22.70;61.80;;;;;;5064451;28;20439;-73
2023/11/17 18:18:50;;;;;;;9.93;8.93;;;22.70;61.60;;;;;;5072925;28;20205;-71
2023/11/17 18:21:17;;;;;;;9.13;8.10;;;22.70;62.00;;;;;;5072448;28;20483;-72
2023/11/17 18:23:44;;;;;;;10.23;8.87;;;22.70;61.80;;;;;;5072489;28;20470;-72
2023/11/17 18:26:12;;;;;;;17.87;9.63;;;22.70;61.10;;;;;;5071921;28;20538;-67
2023/11/17 18:28:39;;;;;;;10.77;9.77;;;22.60;61.20;;;;;;5072361;28;20454;-70
2023/11/17 18:31:06;;;;;;;9.73;8.73;;;22.70;61.80;;;;;;5072043;28;20466;-69
2023/11/17 18:33:34;;;;;;;8.77;7.93;;;22.70;61.90;;;;;;5069337;28;20476;-71
2023/11/17 18:36:03;;;;;;;8.95;8.05;;;22.70;63.00;;;;;;5062873;28;20508;-68
2023/11/17 18:38:33;;;;;;;10.03;8.80;;;22.60;61.50;;;;;;5072375;28;20244;-67
2023/11/17 18:41:01;;;;;;;8.73;8.13;;;22.70;61.30;;;;;;5071571;28;20467;-69
2023/11/17 18:43:27;;;;;;;10.13;8.20;;;22.70;60.80;;;;;;5073022;28;20452;-72
2023/11/17 18:45:55;;;;;;;8.73;7.83;;;22.70;60.80;;;;;;5073473;28;20471;-71
2023/11/17 18:48:22;;;;;;;8.63;7.83;;;22.70;61.10;;;;;;5065379;28;20443;-71
2023/11/17 18:50:51;;;;;;;9.70;7.47;;;22.60;61.30;;;;;;5073295;28;20979;-72
2023/11/17 18:53:23;;;;;;;9.57;8.40;;;22.60;61.60;;;;;;5075447;28;20529;-71
2023/11/17 18:55:50;;;;;;;12.03;9.60;;;22.70;61.70;;;;;;5073928;28;20538;-73
2023/11/17 18:58:17;;;;;;;8.90;8.10;;;22.60;61.80;;;;;;5074714;28;20447;-72
2023/11/17 19:00:44;;;;;;;9.07;8.17;;;22.60;61.60;;;;;;5073998;28;20502;-71
2023/11/17 19:03:12;;;;;;;8.60;7.40;;;22.60;61.80;;;;;;5073978;28;20447;-72
2023/11/17 19:05:40;;;;;;;8.80;7.90;;;22.60;61.50;;;;;;5072462;28;20447;-69
2023/11/17 19:08:08;;;;;;;9.77;8.77;;;22.60;61.50;;;;;;5073075;28;20453;-71
2023/11/17 19:13:23;;;;;;;8.43;7.73;;;22.60;61.50;;;;;;5071778;28;20473;-69
2023/11/17 19:15:51;;;;;;;9.33;8.43;;;22.50;61.40;;;;;;5071469;28;20455;-70
2023/11/17 19:18:18;;;;;;;13.63;8.60;;;22.50;62.50;;;;;;5071489;28;20435;-70
2023/11/17 19:20:46;;;;;;;10.13;8.67;;;22.50;63.80;;;;;;5071735;28;20470;-73
2023/11/17 19:23:14;;;;;;;11.73;9.33;;;22.50;66.80;;;;;;5071507;28;20530;-71
2023/11/17 19:25:43;;;;;;;10.77;8.23;;;22.50;67.30;;;;;;5071577;28;20536;-71
2023/11/17 19:28:10;;;;;;;11.13;8.77;;;22.50;66.80;;;;;;5071648;28;20471;-71
2023/11/17 19:30:37;;;;;;;10.97;9.93;;;22.50;67.30;;;;;;5071703;28;20485;-70
2023/11/17 19:33:05;;;;;;;9.13;7.97;;;22.50;68.10;;;;;;5071580;28;20501;-70
2023/11/17 19:35:33;;;;;;;10.47;9.40;;;22.50;68.00;;;;;;5071575;28;20863;-71
2023/11/17 19:38:01;;;;;;;43.37;22.87;;;22.50;66.80;;;;;;5071503;28;20867;-71
2023/11/17 19:40:28;;;;;;;92.23;43.00;;;22.50;67.90;;;;;;5071408;28;20463;-70
2023/11/17 19:42:56;;;;;;;73.67;41.20;;;22.50;69.60;;;;;;5071451;28;20835;-70
2023/11/17 19:45:24;;;;;;;120.77;60.17;;;22.50;67.90;;;;;;5062473;28;20479;-70
2023/11/17 19:47:52;;;;;;;108.27;49.90;;;22.50;68.80;;;;;;5070901;28;20447;-68
2023/11/17 19:50:20;;;;;;;59.30;36.57;;;22.50;65.50;;;;;;5071019;28;20466;-69
2023/11/17 19:52:47;;;;;;;41.73;30.43;;;22.50;61.90;;;;;;5073975;28;20471;-69
2023/11/17 19:55:15;;;;;;;43.67;27.37;;;22.50;59.20;;;;;;5075191;28;20937;-68
2023/11/17 19:57:42;;;;;;;39.73;24.73;;;22.50;57.70;;;;;;5075921;28;20530;-74
2023/11/17 20:00:11;;;;;;;28.50;20.33;;;22.50;56.20;;;;;;5075041;28;20495;-73
2023/11/17 20:02:41;;;;;;;31.07;19.70;;;22.40;54.70;;;;;;5075488;28;20439;-75
2023/11/17 20:05:09;;;;;;;32.83;20.60;;;22.40;56.50;;;;;;5074768;28;20953;-70
2023/11/17 20:07:36;;;;;;;27.90;21.60;;;22.40;57.40;;;;;;5075024;28;20447;-69
2023/11/17 20:10:05;;;;;;;30.00;20.17;;;22.30;58.10;;;;;;5075048;28;20463;-70
2023/11/17 20:12:31;;;;;;;26.43;19.27;;;22.30;58.30;;;;;;5075029;28;20562;-72
2023/11/17 20:14:58;;;;;;;24.13;17.80;;;22.30;58.30;;;;;;5074651;28;20981;-71
2023/11/17 20:17:27;;;;;;;31.33;19.80;;;22.20;58.50;;;;;;5074867;28;20475;-72
2023/11/17 20:19:54;;;;;;;19.70;17.20;;;22.20;58.70;;;;;;5074836;28;20451;-70
2023/11/17 20:22:21;;;;;;;25.77;17.03;;;22.20;58.80;;;;;;5074808;28;20811;-71
2023/11/17 20:24:48;;;;;;;31.07;19.20;;;22.20;58.90;;;;;;5074540;28;20490;-71
2023/11/17 20:27:15;;;;;;;27.50;18.57;;;22.20;59.50;;;;;;5074636;28;20500;-71
2023/11/17 20:29:43;;;;;;;24.37;17.60;;;22.20;59.00;;;;;;5074651;28;20439;-71
2023/11/17 20:32:11;;;;;;;24.73;17.60;;;22.10;59.00;;;;;;5074347;28;20443;-71
2023/11/17 20:34:39;;;;;;;27.17;17.60;;;22.10;59.10;;;;;;5074589;28;20448;-71
2023/11/17 20:37:08;;;;;;;20.20;15.10;;;22.10;59.30;;;;;;5074213;28;21104;-72
2023/11/17 20:39:38;;;;;;;26.77;15.80;;;22.10;59.30;;;;;;5074373;28;20509;-71
2023/11/17 20:42:05;;;;;;;20.33;15.90;;;22.10;60.00;;;;;;5074307;28;20466;-71
2023/11/17 20:44:32;;;;;;;27.60;16.30;;;22.10;60.20;;;;;;5074072;28;20435;-71
2023/11/17 20:46:59;;;;;;;21.23;15.83;;;22.00;59.50;;;;;;5074477;28;20490;-71
2023/11/17 20:49:26;;;;;;;18.63;13.80;;;22.00;59.60;;;;;;5066166;28;20479;-71
2023/11/17 20:51:54;;;;;;;18.53;14.07;;;22.00;59.80;;;;;;5073994;28;20471;-71
2023/11/17 20:54:23;;;;;;;14.83;13.23;;;22.00;59.70;;;;;;5073688;28;20511;-71
2023/11/17 20:56:50;;;;;;;14.70;12.63;;;22.00;59.80;;;;;;5073582;28;20447;-71
2023/11/17 20:59:17;;;;;;;18.20;13.13;;;22.00;59.80;;;;;;5074060;28;20477;-70
2023/11/17 21:01:47;;;;;;;15.40;13.80;;;22.00;59.90;;;;;;5074018;28;20498;-69
2023/11/17 21:04:14;;;;;;;23.10;13.60;;;22.00;60.00;;;;;;5073352;28;20466;-69
2023/11/17 21:06:43;;;;;;;16.20;13.90;;;22.00;60.40;;;;;;5073734;28;20451;-68
2023/11/17 21:09:12;;;;;;;13.60;12.27;;;22.00;60.60;;;;;;5072676;28;20458;-68
2023/11/17 21:11:40;;;;;;;16.80;12.63;;;22.00;60.60;;;;;;5073553;28;20470;-69
2023/11/17 21:14:08;;;;;;;13.83;12.27;;;21.90;60.60;;;;;;5073712;28;20479;-68
2023/11/17 21:16:35;;;;;;;17.83;13.43;;;21.90;60.50;;;;;;5073996;28;20486;-68
2023/11/17 21:19:02;;;;;;;13.80;12.03;;;22.00;60.70;;;;;;5073282;28;20451;-69
2023/11/17 21:21:29;;;;;;;14.57;13.03;;;21.90;60.40;;;;;;5073217;28;20495;-68
2023/11/17 21:23:56;;;;;;;16.30;11.37;;;22.00;60.50;;;;;;5073775;28;20443;-68
2023/11/17 21:26:26;;;;;;;14.23;11.57;;;22.00;60.40;;;;;;5073556;28;20442;-68
2023/11/17 21:28:53;;;;;;;13.10;10.50;;;22.00;60.50;;;;;;5073650;28;20475;-68
2023/11/17 21:31:20;;;;;;;13.23;11.43;;;22.00;60.40;;;;;;5073193;28;20499;-68
2023/11/17 21:33:49;;;;;;;13.87;12.50;;;21.90;60.30;;;;;;5073276;28;20510;-68
2023/11/17 21:36:19;;;;;;;15.07;10.50;;;21.90;60.20;;;;;;5073303;28;20922;-68
2023/11/17 21:38:47;;;;;;;11.93;10.63;;;21.90;60.20;;;;;;5073329;28;20443;-68
2023/11/17 21:41:14;;;;;;;13.63;11.70;;;22.00;60.30;;;;;;5073131;28;21050;-69
2023/11/17 21:43:43;;;;;;;10.60;9.77;;;22.00;60.40;;;;;;5073059;28;20447;-68
2023/11/17 21:46:10;;;;;;;14.30;11.33;;;21.90;60.30;;;;;;5073126;28;20482;-68
2023/11/17 21:48:37;;;;;;;12.57;11.20;;;21.90;60.40;;;;;;5073221;28;20497;-68
2023/11/17 21:51:05;;;;;;;11.10;9.90;;;21.90;60.50;;;;;;5094089;22;20914;-66
2023/11/17 21:53:33;;;;;;;13.13;10.90;;;21.90;60.40;;;;;;5093055;28;20509;-66
2023/11/17 21:55:59;;;;;;;11.13;10.03;;;21.90;60.60;;;;;;5093329;28;20446;-66
2023/11/17 21:58:26;;;;;;;10.53;9.53;;;21.90;60.50;;;;;;5093062;28;20472;-67
2023/11/17 22:00:56;;;;;;;13.03;9.70;;;21.90;60.40;;;;;;5085814;28;20502;-66
2023/11/17 22:03:23;;;;;;;10.43;9.43;;;21.90;60.50;;;;;;5072616;28;20443;-67
2023/11/17 22:05:49;;;;;;;11.60;10.00;;;21.90;60.60;;;;;;5072838;28;20482;-67
2023/11/17 22:08:16;;;;;;;12.83;9.73;;;21.90;60.60;;;;;;5072677;28;20479;-68
2023/11/17 22:10:44;;;;;;;11.70;9.10;;;21.90;60.60;;;;;;5072456;28;20960;-67
2023/11/17 22:13:11;;;;;;;10.70;9.80;;;21.90;60.60;;;;;;5064061;28;20562;-67
2023/11/17 22:15:38;;;;;;;10.70;9.60;;;21.90;60.70;;;;;;5071747;28;20467;-67
2023/11/17 22:18:07;;;;;;;10.50;9.60;;;21.80;60.60;;;;;;5072479;28;20825;-67
2023/11/17 22:20:34;;;;;;;10.57;9.10;;;21.90;60.80;;;;;;5072224;28;20484;-67
2023/11/17 22:23:01;;;;;;;10.13;8.77;;;21.80;60.70;;;;;;5072334;28;20475;-68
2023/11/17 22:25:29;;;;;;;10.60;8.80;;;21.80;60.70;;;;;;5068466;28;20875;-67
2023/11/17 22:27:59;;;;;;;11.50;10.20;;;21.80;60.80;;;;;;5067915;28;20447;-66
2023/11/17 22:30:25;;;;;;;10.13;9.07;;;21.80;60.70;;;;;;5071892;28;21057;-67
2023/11/17 22:32:52;;;;;;;10.73;9.30;;;21.80;60.60;;;;;;5072063;28;20943;-67
2023/11/17 22:35:22;;;;;;;11.10;10.03;;;21.80;60.70;;;;;;5071998;28;20440;-66
2023/11/17 22:37:49;;;;;;;10.27;9.37;;;21.80;60.70;;;;;;5072192;28;21131;-66
2023/11/17 22:40:17;;;;;;;10.40;9.40;;;21.80;60.70;;;;;;5063376;28;20459;-66
2023/11/17 22:42:46;;;;;;;9.83;8.93;;;21.80;60.60;;;;;;5072074;28;20443;-66
2023/11/17 22:45:15;;;;;;;10.07;9.07;;;21.80;60.80;;;;;;5071910;28;20467;-66
2023/11/17 22:47:44;;;;;;;10.50;9.50;;;21.80;60.80;;;;;;5071844;28;20451;-67
2023/11/17 22:50:13;;;;;;;10.37;9.47;;;21.80;60.70;;;;;;5063415;28;20448;-66
2023/11/17 22:52:41;;;;;;;9.33;8.53;;;21.80;60.80;;;;;;5071998;28;20523;-67
2023/11/17 22:55:09;;;;;;;9.00;8.20;;;21.80;60.90;;;;;;5071798;28;20521;-66
2023/11/17 22:57:36;;;;;;;10.23;9.20;;;21.80;60.80;;;;;;5071654;28;20447;-66
2023/11/17 23:00:13;;;;;;;10.13;9.13;;;21.80;60.80;;;;;;5071702;28;20816;-67
2023/11/17 23:02:43;;;;;;;9.07;8.40;;;21.70;60.80;;;;;;5064915;28;20440;-66
2023/11/17 23:05:11;;;;;;;9.77;8.87;;;21.70;60.80;;;;;;5071706;28;20436;-67
2023/11/17 23:07:38;;;;;;;11.27;10.17;;;21.70;60.80;;;;;;5071217;28;20546;-67
2023/11/17 23:10:09;;;;;;;8.70;7.90;;;21.70;60.80;;;;;;5063159;28;20939;-66
2023/11/17 23:12:36;;;;;;;9.50;8.80;;;21.70;61.00;;;;;;5064245;28;20821;-67
2023/11/17 23:15:05;;;;;;;9.40;8.30;;;21.70;61.10;;;;;;5071656;28;20483;-66
2023/11/17 23:17:32;;;;;;;8.50;7.80;;;21.70;61.00;;;;;;5071353;28;20534;-66
2023/11/17 23:20:00;;;;;;;8.83;7.90;;;21.60;60.90;;;;;;5071575;28;20466;-66
2023/11/17 23:22:27;;;;;;;8.47;7.73;;;21.60;60.90;;;;;;5071608;28;20440;-67
2023/11/17 23:24:54;;;;;;;8.83;8.07;;;21.60;60.90;;;;;;5071567;28;20463;-66
2023/11/17 23:27:22;;;;;;;9.10;8.33;;;21.60;60.90;;;;;;5062687;28;20555;-66
2023/11/17 23:29:49;;;;;;;8.90;8.00;;;21.60;61.00;;;;;;5071641;28;20458;-65
2023/11/17 23:32:16;;;;;;;9.03;8.20;;;21.60;61.00;;;;;;5071414;28;20494;-68
2023/11/17 23:34:43;;;;;;;8.87;7.97;;;21.60;61.00;;;;;;5071333;28;20518;-66
2023/11/17 23:37:10;;;;;;;8.43;7.63;;;21.60;61.10;;;;;;5071028;28;20830;-66
2023/11/17 23:39:36;;;;;;;9.50;8.00;;;21.50;60.90;;;;;;5071357;28;20876;-66
2023/11/17 23:42:08;;;;;;;7.93;7.33;;;21.50;60.90;;;;;;5071682;28;20483;-66
2023/11/17 23:44:37;;;;;;;7.47;6.93;;;21.50;60.90;;;;;;5063445;28;20534;-66
2023/11/17 23:47:07;;;;;;;8.90;7.90;;;21.50;60.90;;;;;;5063376;28;20448;-66
2023/11/17 23:49:35;;;;;;;8.00;7.50;;;21.50;60.90;;;;;;5071290;28;20451;-66
2023/11/17 23:52:02;;;;;;;8.73;7.90;;;21.50;61.00;;;;;;5071163;28;20874;-66
2023/11/17 23:54:29;;;;;;;8.30;7.60;;;21.50;61.00;;;;;;5070946;28;20525;-66
2023/11/17 23:56:56;;;;;;;7.80;7.20;;;21.50;61.10;;;;;;5064274;28;20484;-66
2023/11/17 23:59:23;;;;;;;9.03;7.77;;;21.50;61.10;;;;;;5070025;28;20443;-67
